Time;durP1;ratioP1;P1;durP2;ratioP2;P2;SDS_P1;SDS_P2;PMS_P1;PMS_P2;Temp;Humidity;BMP_temperature;BMP_pressure;BME280_temperature;BME280_humidity;BME280_pressure;Samples;Min_cycle;Max_cycle;Signal;HPM_P1;HPM_P2
2021/09/01 00:00:24;;;;;;;7.60;5.13;;;16.80;77.40;;;;;;5043589;28;20036;-50
2021/09/01 00:03:08;;;;;;;7.25;4.90;;;16.80;77.60;;;;;;5043947;28;20045;-53
2021/09/01 00:05:52;;;;;;;9.25;5.85;;;16.70;77.80;;;;;;5043534;28;20052;-52
2021/09/01 00:08:37;;;;;;;8.18;5.10;;;16.70;77.60;;;;;;5043353;28;20071;-51
2021/09/01 00:11:21;;;;;;;7.35;5.20;;;16.70;77.80;;;;;;5043311;28;20103;-52
2021/09/01 00:14:05;;;;;;;8.85;5.70;;;16.60;77.70;;;;;;5043347;28;20097;-54
2021/09/01 00:16:50;;;;;;;8.50;5.38;;;16.60;77.90;;;;;;5043318;28;20028;-50
2021/09/01 00:19:34;;;;;;;9.32;5.30;;;16.50;77.90;;;;;;5043398;28;20021;-52
2021/09/01 00:22:18;;;;;;;6.53;4.85;;;16.50;77.90;;;;;;5043270;28;20343;-50
2021/09/01 00:25:03;;;;;;;7.18;5.22;;;16.50;77.90;;;;;;5042993;28;20051;-51
2021/09/01 00:27:47;;;;;;;7.43;5.20;;;16.50;77.70;;;;;;5042799;28;20148;-52
2021/09/01 00:30:32;;;;;;;9.30;5.28;;;16.50;77.40;;;;;;5043329;28;20032;-53
2021/09/01 00:33:16;;;;;;;8.18;5.15;;;16.40;77.30;;;;;;5043107;28;20056;-51
2021/09/01 00:36:00;;;;;;;7.80;5.20;;;16.50;77.20;;;;;;5043820;28;20031;-53
2021/09/01 00:38:45;;;;;;;8.73;5.00;;;16.40;77.10;;;;;;5043459;28;20068;-49
2021/09/01 00:41:29;;;;;;;8.52;5.40;;;16.30;76.90;;;;;;5043395;28;20212;-53
2021/09/01 00:44:25;;;;;;;8.13;5.32;;;16.30;76.90;;;;;;5044063;28;20096;-53
2021/09/01 00:47:09;;;;;;;7.53;5.25;;;16.30;76.70;;;;;;5047004;28;20244;-52
2021/09/01 00:49:53;;;;;;;8.35;5.05;;;16.10;76.80;;;;;;5046900;28;20024;-50
2021/09/01 00:52:38;;;;;;;8.18;4.93;;;16.10;76.80;;;;;;5046814;28;20044;-52
2021/09/01 00:55:23;;;;;;;8.77;5.28;;;16.10;76.70;;;;;;5046676;28;20032;-52
2021/09/01 00:58:08;;;;;;;7.28;4.85;;;16.20;76.30;;;;;;5046548;28;20028;-51
2021/09/01 01:03:40;;;;;;;8.05;5.15;;;16.00;76.30;;;;;;5046536;28;20040;-52
2021/09/01 01:06:25;;;;;;;7.35;4.70;;;15.90;76.40;;;;;;5046569;28;20036;-52
2021/09/01 01:09:10;;;;;;;6.75;4.40;;;15.90;76.10;;;;;;5046873;28;20213;-50
2021/09/01 01:12:13;;;;;;;6.35;4.63;;;16.00;75.90;;;;;;5046813;28;20029;-51
2021/09/01 01:14:57;;;;;;;9.23;4.78;;;15.90;76.00;;;;;;5046769;28;20075;-52
2021/09/01 01:17:42;;;;;;;8.65;4.70;;;15.80;76.40;;;;;;5046675;28;20106;-50
2021/09/01 01:20:26;;;;;;;8.35;4.90;;;15.70;76.40;;;;;;5046253;28;20083;-50
2021/09/01 01:23:10;;;;;;;8.65;4.85;;;15.60;76.30;;;;;;5046132;28;20037;-52
2021/09/01 01:25:55;;;;;;;6.82;4.60;;;15.60;76.30;;;;;;5046196;28;20040;-49
2021/09/01 01:28:39;;;;;;;6.28;4.50;;;15.50;76.40;;;;;;5046181;28;20037;-52
2021/09/01 01:31:23;;;;;;;7.25;4.40;;;15.50;76.20;;;;;;5046106;28;20356;-50
2021/09/01 01:34:12;;;;;;;5.80;4.45;;;15.40;76.10;;;;;;5045793;28;20120;-51
2021/09/01 01:36:56;;;;;;;5.93;4.45;;;15.40;76.00;;;;;;5045933;28;20025;-50
2021/09/01 01:39:41;;;;;;;7.32;4.53;;;15.40;76.00;;;;;;5046365;28;20029;-52
2021/09/01 01:42:25;;;;;;;5.65;4.20;;;15.30;76.00;;;;;;5046011;28;20056;-50
2021/09/01 01:45:09;;;;;;;6.15;4.15;;;15.30;75.90;;;;;;5046230;28;20260;-49
2021/09/01 01:47:53;;;;;;;7.93;4.35;;;15.30;76.00;;;;;;5046199;28;20044;-51
2021/09/01 01:50:38;;;;;;;6.30;4.45;;;15.20;75.90;;;;;;5045628;28;20044;-50
2021/09/01 01:53:22;;;;;;;6.35;4.43;;;15.20;75.80;;;;;;5045896;28;20036;-49
2021/09/01 01:56:07;;;;;;;6.70;4.15;;;15.10;75.80;;;;;;5044692;28;20087;-50
2021/09/01 01:58:51;;;;;;;7.43;4.50;;;15.10;75.70;;;;;;5045833;28;20397;-50
2021/09/01 02:01:35;;;;;;;6.28;4.75;;;15.10;75.70;;;;;;5045467;28;20097;-51
2021/09/01 02:04:20;;;;;;;6.25;4.35;;;15.10;75.70;;;;;;5045354;28;20121;-49
2021/09/01 02:07:04;;;;;;;5.38;4.20;;;14.90;75.70;;;;;;5045261;28;20032;-51
2021/09/01 02:09:48;;;;;;;6.20;4.07;;;14.90;75.70;;;;;;5045208;28;20059;-52
2021/09/01 02:12:32;;;;;;;6.65;4.32;;;14.90;75.70;;;;;;5045425;28;20041;-50
2021/09/01 02:15:17;;;;;;;8.15;4.75;;;14.90;75.80;;;;;;5045705;28;20141;-50
2021/09/01 02:18:01;;;;;;;5.95;4.28;;;14.80;75.80;;;;;;5045620;28;20032;-49
2021/09/01 02:20:45;;;;;;;5.82;3.97;;;14.80;75.70;;;;;;5045081;28;20031;-50
2021/09/01 02:23:29;;;;;;;5.18;3.85;;;14.80;75.60;;;;;;5044929;28;20068;-50
2021/09/01 02:26:14;;;;;;;5.97;4.30;;;14.80;75.60;;;;;;5044999;28;20094;-49
2021/09/01 02:28:58;;;;;;;5.55;4.05;;;14.70;75.60;;;;;;5044899;28;20028;-50
2021/09/01 02:31:42;;;;;;;6.43;4.47;;;14.80;75.50;;;;;;5045029;28;20067;-51
2021/09/01 02:34:26;;;;;;;8.65;3.97;;;14.70;75.30;;;;;;5044869;28;20047;-50
2021/09/01 02:37:11;;;;;;;7.63;4.72;;;14.70;75.30;;;;;;5044813;28;20364;-50
2021/09/01 02:39:55;;;;;;;7.93;4.57;;;14.60;75.40;;;;;;5044808;28;20028;-50
2021/09/01 02:42:39;;;;;;;7.60;4.63;;;14.70;75.30;;;;;;5045155;28;20162;-50
2021/09/01 02:45:23;;;;;;;7.82;4.32;;;14.60;75.30;;;;;;5044702;28;20071;-51
2021/09/01 02:48:07;;;;;;;6.03;4.10;;;14.60;75.30;;;;;;5044995;28;20108;-49
2021/09/01 02:50:52;;;;;;;5.95;4.18;;;14.60;75.20;;;;;;5044902;28;20028;-49
2021/09/01 02:53:37;;;;;;;7.75;4.50;;;14.60;75.30;;;;;;5044823;28;20093;-52
2021/09/01 02:56:21;;;;;;;8.07;4.32;;;14.60;75.40;;;;;;5044684;28;20032;-50
2021/09/01 02:59:05;;;;;;;8.57;4.68;;;14.50;75.50;;;;;;5044587;28;20039;-50
2021/09/01 03:01:50;;;;;;;8.02;4.72;;;14.50;75.50;;;;;;5044528;28;20020;-50
2021/09/01 03:04:34;;;;;;;7.15;4.55;;;14.50;75.60;;;;;;5044196;28;20056;-49
2021/09/01 03:07:18;;;;;;;6.85;4.20;;;14.40;75.70;;;;;;5044214;28;20032;-50
2021/09/01 03:10:03;;;;;;;8.73;4.72;;;14.40;75.70;;;;;;5044145;28;20033;-51
2021/09/01 03:12:47;;;;;;;8.10;4.45;;;14.40;75.70;;;;;;5044648;28;20029;-49
2021/09/01 03:15:31;;;;;;;6.78;4.32;;;14.30;75.70;;;;;;5044199;28;20056;-51
2021/09/01 03:18:15;;;;;;;8.63;4.57;;;14.30;75.60;;;;;;5044526;28;20036;-53
2021/09/01 03:20:59;;;;;;;7.13;4.53;;;14.30;75.70;;;;;;5044124;28;20067;-50
2021/09/01 03:23:43;;;;;;;9.10;4.20;;;14.30;75.70;;;;;;5044040;28;20052;-49
2021/09/01 03:26:31;;;;;;;6.88;4.25;;;14.30;75.50;;;;;;5043944;28;20032;-50
2021/09/01 03:29:15;;;;;;;6.20;4.47;;;14.30;75.30;;;;;;5044265;28;20040;-49
2021/09/01 03:32:00;;;;;;;7.63;4.43;;;14.30;75.40;;;;;;5043844;28;20025;-53
2021/09/01 03:34:44;;;;;;;6.18;4.10;;;14.20;75.40;;;;;;5043875;28;20148;-51
2021/09/01 03:37:28;;;;;;;6.85;5.00;;;14.20;75.50;;;;;;5043788;28;20033;-49
2021/09/01 03:40:13;;;;;;;6.50;4.35;;;14.30;75.40;;;;;;5043749;28;20127;-52
2021/09/01 03:42:57;;;;;;;6.78;4.70;;;14.30;75.40;;;;;;5043802;28;20147;-51
2021/09/01 03:45:42;;;;;;;6.00;4.45;;;14.30;75.40;;;;;;5044033;28;20064;-49
2021/09/01 03:48:26;;;;;;;7.35;4.63;;;14.20;75.60;;;;;;5043771;28;20339;-51
2021/09/01 03:51:10;;;;;;;5.88;4.47;;;14.10;75.80;;;;;;5043275;28;20048;-49
2021/09/01 03:53:54;;;;;;;5.88;4.13;;;14.10;75.90;;;;;;5044013;28;20071;-49
2021/09/01 03:56:38;;;;;;;6.15;4.43;;;14.20;75.60;;;;;;5043970;28;20140;-51
2021/09/01 03:59:22;;;;;;;6.35;4.57;;;14.00;76.00;;;;;;5043761;28;20032;-50
2021/09/01 04:02:07;;;;;;;6.57;4.50;;;13.90;76.10;;;;;;5043422;28;20083;-52
2021/09/01 04:04:51;;;;;;;5.70;4.03;;;13.90;76.10;;;;;;5043654;28;20040;-52
2021/09/01 04:07:35;;;;;;;5.57;4.00;;;13.80;76.00;;;;;;5043476;28;20045;-52
2021/09/01 04:10:20;;;;;;;6.40;3.95;;;13.80;75.70;;;;;;5043460;28;20079;-52
2021/09/01 04:13:04;;;;;;;6.30;4.50;;;13.80;75.70;;;;;;5042607;28;20033;-52
2021/09/01 04:15:48;;;;;;;5.95;4.28;;;13.80;75.60;;;;;;5044224;28;20032;-51
2021/09/01 04:18:32;;;;;;;6.13;4.55;;;13.80;75.80;;;;;;5043491;28;20105;-50
2021/09/01 04:21:17;;;;;;;7.22;4.70;;;13.70;75.90;;;;;;5047901;28;20072;-51
2021/09/01 04:24:01;;;;;;;6.93;3.88;;;13.80;75.80;;;;;;5047211;28;20028;-51
2021/09/01 04:26:45;;;;;;;5.88;3.90;;;13.80;75.80;;;;;;5047283;28;20056;-50
2021/09/01 04:29:29;;;;;;;7.63;4.43;;;13.80;75.80;;;;;;5047203;28;20044;-50
2021/09/01 04:32:14;;;;;;;6.15;3.80;;;13.80;75.90;;;;;;5047007;28;20064;-53
2021/09/01 04:34:58;;;;;;;5.47;3.90;;;13.80;76.10;;;;;;5047153;28;20251;-51
2021/09/01 04:37:42;;;;;;;6.05;3.75;;;13.80;76.10;;;;;;5047020;28;20360;-52
2021/09/01 04:40:27;;;;;;;9.32;3.90;;;13.90;76.10;;;;;;5047173;28;20028;-49
2021/09/01 04:43:11;;;;;;;4.50;3.58;;;13.90;76.10;;;;;;5047066;28;20033;-50
2021/09/01 04:45:55;;;;;;;4.40;3.10;;;13.90;76.30;;;;;;5046952;28;20079;-48
2021/09/01 04:48:39;;;;;;;6.10;3.42;;;14.00;76.20;;;;;;5047394;28;20033;-51
2021/09/01 04:51:23;;;;;;;3.72;2.80;;;14.00;76.30;;;;;;5047101;28;20032;-49
2021/09/01 04:54:07;;;;;;;3.80;3.03;;;14.00;76.30;;;;;;5046890;28;20250;-49
2021/09/01 04:56:51;;;;;;;5.65;2.75;;;13.90;76.40;;;;;;5047164;28;20033;-50
2021/09/01 04:59:35;;;;;;;4.00;3.00;;;14.00;76.40;;;;;;5047061;28;20071;-53
2021/09/01 05:02:20;;;;;;;4.53;3.30;;;14.00;76.40;;;;;;5046982;28;20032;-53
2021/09/01 05:05:05;;;;;;;5.38;3.33;;;14.00;76.40;;;;;;5046808;28;20036;-50
2021/09/01 05:07:49;;;;;;;4.20;3.17;;;13.90;76.70;;;;;;5046651;28;20212;-49
2021/09/01 05:10:33;;;;;;;4.57;3.30;;;14.00;76.70;;;;;;5046669;28;20097;-51
2021/09/01 05:13:17;;;;;;;4.47;3.35;;;14.00;76.70;;;;;;5046493;28;20048;-53
2021/09/01 05:16:01;;;;;;;7.70;3.42;;;14.00;76.90;;;;;;5046439;28;20021;-50
2021/09/01 05:18:46;;;;;;;5.57;3.55;;;13.90;76.90;;;;;;5046519;28;20052;-50
2021/09/01 05:21:29;;;;;;;5.35;4.07;;;14.00;76.80;;;;;;5046644;28;20036;-50
2021/09/01 05:24:21;;;;;;;7.15;5.13;;;14.00;76.90;;;;;;5045885;28;20036;-49
2021/09/01 05:27:11;;;;;;;4.93;3.78;;;14.00;77.00;;;;;;5046183;28;20040;-50
2021/09/01 05:29:55;;;;;;;6.63;3.72;;;14.00;77.10;;;;;;5046545;28;20036;-49
2021/09/01 05:32:40;;;;;;;5.03;3.42;;;14.10;77.30;;;;;;5030775;28;20101;-50
2021/09/01 05:35:24;;;;;;;7.05;3.80;;;14.00;77.20;;;;;;5046266;28;20040;-49
2021/09/01 05:38:08;;;;;;;5.50;3.55;;;14.00;77.40;;;;;;5046028;28;20085;-50
2021/09/01 05:40:53;;;;;;;6.90;3.83;;;14.10;77.30;;;;;;5046133;28;20076;-50
2021/09/01 05:43:37;;;;;;;5.20;3.42;;;14.10;77.40;;;;;;5045013;28;20530;-50
2021/09/01 05:46:22;;;;;;;6.78;4.75;;;14.10;77.40;;;;;;5044985;28;20229;-53
2021/09/01 05:49:06;;;;;;;4.70;3.78;;;14.10;77.40;;;;;;5045626;28;20367;-50
2021/09/01 05:51:50;;;;;;;5.85;3.58;;;14.10;77.60;;;;;;5045385;28;20024;-52
2021/09/01 05:54:34;;;;;;;5.03;3.60;;;14.10;77.90;;;;;;5045082;28;20040;-51
2021/09/01 05:57:36;;;;;;;5.88;3.95;;;14.20;77.80;;;;;;5045605;28;20224;-53
2021/09/01 06:00:20;;;;;;;4.93;3.60;;;14.30;77.90;;;;;;5045690;28;20083;-50
2021/09/01 06:03:32;;;;;;;5.00;3.63;;;14.30;78.00;;;;;;5045116;28;20032;-49
2021/09/01 06:06:16;;;;;;;6.43;3.80;;;14.40;78.40;;;;;;5046110;28;20372;-51
2021/09/01 06:09:01;;;;;;;6.30;4.10;;;14.40;78.20;;;;;;5045053;28;20043;-50
2021/09/01 06:11:45;;;;;;;5.43;3.92;;;14.40;78.30;;;;;;5044347;28;20272;-51
2021/09/01 06:14:29;;;;;;;5.25;3.80;;;14.40;78.40;;;;;;5044479;28;20236;-51
2021/09/01 06:17:13;;;;;;;5.57;4.30;;;14.40;78.50;;;;;;5045253;28;20033;-52
2021/09/01 06:19:58;;;;;;;7.50;4.10;;;14.40;78.90;;;;;;5045434;28;20033;-50
2021/09/01 06:22:42;;;;;;;5.88;4.35;;;14.50;78.90;;;;;;5045078;28;20029;-50
2021/09/01 06:25:26;;;;;;;8.20;4.50;;;14.50;79.30;;;;;;5045052;28;20036;-50
2021/09/01 06:28:10;;;;;;;6.78;4.78;;;14.70;79.30;;;;;;5044122;28;20351;-50
2021/09/01 06:30:55;;;;;;;7.72;5.00;;;14.80;79.30;;;;;;5045494;28;20025;-50
2021/09/01 06:33:39;;;;;;;6.63;4.90;;;14.90;79.20;;;;;;5044914;28;20060;-50
2021/09/01 06:36:23;;;;;;;6.63;4.72;;;15.00;79.40;;;;;;5045128;28;20039;-49
2021/09/01 06:39:07;;;;;;;7.78;5.00;;;15.10;79.40;;;;;;5045325;28;20040;-51
2021/09/01 06:41:52;;;;;;;7.55;5.18;;;15.20;79.40;;;;;;5044563;28;20079;-50
2021/09/01 06:44:36;;;;;;;8.73;5.65;;;15.20;79.50;;;;;;5044626;28;20033;-49
2021/09/01 06:47:20;;;;;;;7.85;5.50;;;15.30;79.60;;;;;;5044502;28;20032;-51
2021/09/01 06:50:05;;;;;;;7.40;5.50;;;15.30;79.80;;;;;;5044638;28;20260;-49
2021/09/01 06:52:50;;;;;;;9.30;6.40;;;15.40;79.80;;;;;;5044495;28;20344;-50
2021/09/01 06:55:34;;;;;;;11.20;6.40;;;15.50;79.80;;;;;;5044689;28;20391;-50
2021/09/01 06:58:19;;;;;;;11.60;5.80;;;15.60;79.80;;;;;;5044556;28;20028;-50
2021/09/01 07:01:03;;;;;;;10.85;6.30;;;15.70;79.80;;;;;;5044453;28;20197;-50
2021/09/01 07:03:48;;;;;;;8.77;6.43;;;15.80;79.70;;;;;;5044823;28;20093;-52
2021/09/01 07:06:33;;;;;;;8.93;5.72;;;15.90;79.60;;;;;;5044500;28;20037;-52
2021/09/01 07:09:17;;;;;;;9.68;5.82;;;16.20;80.00;;;;;;5044272;28;20032;-50
2021/09/01 07:12:01;;;;;;;9.07;6.05;;;16.80;79.40;;;;;;5044833;28;20048;-51
2021/09/01 07:14:46;;;;;;;12.55;6.25;;;17.30;78.40;;;;;;5043822;28;20040;-50
2021/09/01 07:17:30;;;;;;;10.10;6.40;;;17.80;76.90;;;;;;5044261;28;20212;-50
2021/09/01 07:20:15;;;;;;;13.23;7.30;;;18.30;75.50;;;;;;5044509;28;20355;-50
2021/09/01 07:22:59;;;;;;;10.45;7.13;;;18.70;74.10;;;;;;5044161;28;20063;-50
2021/09/01 07:25:44;;;;;;;10.63;6.80;;;19.30;71.60;;;;;;5044184;28;20033;-50
2021/09/01 07:28:28;;;;;;;9.40;6.20;;;20.80;66.70;;;;;;5044100;28;20048;-50
2021/09/01 07:31:12;;;;;;;12.23;6.75;;;22.10;62.60;;;;;;5044101;28;20264;-50
2021/09/01 07:33:59;;;;;;;10.55;6.15;;;23.00;59.40;;;;;;5044359;28;20105;-50
2021/09/01 07:36:43;;;;;;;9.90;5.85;;;23.30;57.70;;;;;;5043379;28;20213;-53
2021/09/01 07:39:27;;;;;;;10.77;5.90;;;23.60;56.40;;;;;;5044127;28;20040;-53
2021/09/01 07:42:12;;;;;;;10.40;7.13;;;23.70;55.80;;;;;;5044370;28;20389;-50
2021/09/01 07:44:56;;;;;;;13.07;6.68;;;22.80;58.30;;;;;;5044236;28;20047;-52
2021/09/01 07:47:47;;;;;;;9.30;6.70;;;22.10;60.10;;;;;;5043899;28;20085;-50
2021/09/01 07:50:31;;;;;;;11.02;5.90;;;22.90;58.10;;;;;;5044194;28;20036;-51
2021/09/01 07:53:16;;;;;;;8.27;5.57;;;23.40;56.70;;;;;;5043436;28;20037;-54
2021/09/01 07:56:00;;;;;;;8.32;5.80;;;22.70;58.20;;;;;;5043949;28;20071;-51
2021/09/01 07:58:44;;;;;;;9.00;5.90;;;22.30;59.20;;;;;;5044019;28;20240;-50
2021/09/01 08:01:29;;;;;;;8.30;5.38;;;21.60;59.90;;;;;;5043687;28;20059;-51
2021/09/01 08:04:13;;;;;;;9.82;6.63;;;21.50;61.90;;;;;;5043727;28;20268;-51
2021/09/01 08:06:57;;;;;;;9.63;6.18;;;21.30;60.90;;;;;;5043628;28;20028;-50
2021/09/01 08:09:42;;;;;;;9.80;6.45;;;20.90;61.70;;;;;;5044112;28;20088;-49
2021/09/01 08:12:26;;;;;;;8.40;5.80;;;20.70;61.60;;;;;;5043804;28;20066;-52
2021/09/01 08:15:10;;;;;;;9.48;6.10;;;20.60;62.30;;;;;;5043622;28;20224;-50
2021/09/01 08:17:55;;;;;;;10.20;6.28;;;20.30;61.60;;;;;;5043611;28;20225;-50
2021/09/01 08:20:39;;;;;;;8.73;5.93;;;20.10;61.90;;;;;;5043911;28;20080;-50
2021/09/01 08:23:23;;;;;;;7.50;5.70;;;20.20;62.70;;;;;;5043401;28;20072;-51
2021/09/01 08:26:07;;;;;;;11.85;6.60;;;20.30;64.30;;;;;;5043277;28;20039;-51
2021/09/01 08:28:52;;;;;;;11.52;7.38;;;20.40;65.10;;;;;;5043293;28;20072;-53
2021/09/01 08:31:36;;;;;;;11.00;7.10;;;20.30;64.90;;;;;;5043171;28;20104;-52
2021/09/01 08:34:20;;;;;;;11.57;6.25;;;20.30;64.50;;;;;;5043172;28;20152;-50
2021/09/01 08:37:05;;;;;;;10.88;6.63;;;20.20;64.80;;;;;;5043137;28;20252;-51
2021/09/01 08:39:49;;;;;;;13.40;7.47;;;20.10;64.50;;;;;;5043580;28;20071;-50
2021/09/01 08:42:35;;;;;;;14.70;6.80;;;20.10;65.20;;;;;;5043847;28;20036;-53
2021/09/01 08:45:19;;;;;;;15.88;7.03;;;20.00;65.40;;;;;;5043110;28;20033;-52
2021/09/01 08:48:03;;;;;;;9.65;6.43;;;19.80;65.20;;;;;;5043863;28;20052;-52
2021/09/01 08:50:48;;;;;;;10.60;6.63;;;19.70;65.20;;;;;;5043192;28;20408;-51
2021/09/01 08:53:32;;;;;;;11.60;7.03;;;19.70;65.80;;;;;;5043215;28;20093;-51
2021/09/01 08:56:18;;;;;;;12.15;6.45;;;19.50;65.90;;;;;;5043279;28;20094;-53
2021/09/01 08:59:03;;;;;;;10.20;6.85;;;19.40;65.50;;;;;;5043470;28;20235;-52
2021/09/01 09:01:49;;;;;;;12.75;6.95;;;19.40;65.60;;;;;;5043258;28;20037;-51
2021/09/01 09:04:38;;;;;;;10.93;7.22;;;19.40;65.50;;;;;;5043323;28;20031;-53
2021/09/01 09:07:23;;;;;;;8.77;6.50;;;19.30;65.50;;;;;;5046705;28;20079;-51
2021/09/01 09:10:42;;;;;;;16.77;6.85;;;19.30;65.40;;;;;;5046549;28;20043;-49
2021/09/01 09:13:30;;;;;;;8.25;6.22;;;19.20;65.60;;;;;;5046688;28;20029;-49
2021/09/01 09:16:15;;;;;;;9.30;6.63;;;19.30;65.80;;;;;;5046569;28;20387;-50
2021/09/01 09:18:59;;;;;;;8.02;5.60;;;19.40;66.00;;;;;;5046570;28;20036;-52
2021/09/01 09:21:43;;;;;;;8.95;5.95;;;19.60;65.60;;;;;;5046905;28;20024;-50
2021/09/01 09:24:33;;;;;;;10.50;5.75;;;19.70;63.40;;;;;;5046403;28;20352;-51
2021/09/01 09:27:17;;;;;;;9.30;5.57;;;19.80;63.00;;;;;;5046613;28;20087;-51
2021/09/01 09:30:02;;;;;;;8.00;5.40;;;20.00;62.90;;;;;;5031820;28;20210;-50
2021/09/01 09:32:56;;;;;;;8.63;5.78;;;20.20;63.90;;;;;;5045256;28;20056;-51
2021/09/01 09:35:51;;;;;;;8.45;5.75;;;20.30;63.20;;;;;;5046565;28;20067;-53
2021/09/01 09:38:39;;;;;;;9.75;6.25;;;20.30;61.50;;;;;;5045748;28;20093;-53
2021/09/01 09:41:25;;;;;;;8.35;5.57;;;20.50;62.10;;;;;;5046396;28;20344;-51
2021/09/01 09:44:12;;;;;;;8.00;5.40;;;20.60;61.00;;;;;;5046341;28;20076;-48
2021/09/01 09:46:56;;;;;;;8.32;5.18;;;20.70;61.50;;;;;;5045917;28;20085;-49
2021/09/01 09:49:40;;;;;;;7.10;5.32;;;20.80;62.00;;;;;;5031258;28;20213;-49
2021/09/01 09:52:24;;;;;;;8.00;5.65;;;20.80;59.50;;;;;;5045942;28;20039;-52
2021/09/01 09:55:19;;;;;;;8.73;5.18;;;21.00;60.50;;;;;;5031022;28;20064;-48
2021/09/01 09:58:03;;;;;;;8.60;4.75;;;21.00;59.00;;;;;;5045838;28;20101;-48
2021/09/01 10:00:47;;;;;;;10.10;5.20;;;21.10;57.70;;;;;;5046218;28;20024;-52
2021/09/01 10:03:31;;;;;;;9.82;5.00;;;21.10;57.50;;;;;;5045681;28;20140;-51
2021/09/01 10:06:19;;;;;;;7.38;4.88;;;21.20;57.40;;;;;;5046141;28;20225;-54
2021/09/01 10:09:04;;;;;;;7.13;5.13;;;21.30;57.90;;;;;;5046071;28;20083;-52
2021/09/01 10:11:50;;;;;;;7.85;4.53;;;21.40;58.40;;;;;;5045246;28;20064;-51
2021/09/01 10:14:34;;;;;;;6.68;5.00;;;21.50;57.40;;;;;;5045537;28;20076;-51
2021/09/01 10:17:18;;;;;;;7.25;5.18;;;21.40;54.20;;;;;;5044834;28;20150;-52
2021/09/01 10:20:03;;;;;;;10.77;5.00;;;21.40;54.40;;;;;;5044562;28;20079;-50
2021/09/01 10:23:01;;;;;;;6.43;4.60;;;21.60;54.40;;;;;;5045360;28;20400;-49
2021/09/01 10:25:50;;;;;;;7.93;4.78;;;21.70;54.40;;;;;;5045157;28;20039;-49
2021/09/01 10:28:35;;;;;;;6.78;4.57;;;21.50;54.50;;;;;;5045169;28;20036;-48
2021/09/01 10:31:40;;;;;;;6.97;4.53;;;21.20;52.60;;;;;;5045176;28;20248;-50
2021/09/01 10:34:24;;;;;;;9.45;4.10;;;21.30;54.10;;;;;;5045118;28;20060;-48
2021/09/01 10:37:09;;;;;;;8.00;4.70;;;21.30;54.20;;;;;;5045019;28;20107;-51
2021/09/01 10:39:53;;;;;;;6.93;4.45;;;21.30;54.50;;;;;;5045483;28;20023;-51
2021/09/01 10:42:39;;;;;;;7.97;4.63;;;21.30;54.90;;;;;;5045033;28;20057;-48
2021/09/01 10:45:29;;;;;;;8.63;4.70;;;21.40;54.60;;;;;;5045482;28;20037;-49
2021/09/01 10:48:14;;;;;;;7.80;4.82;;;21.50;54.60;;;;;;5044450;28;20079;-48
2021/09/01 10:50:59;;;;;;;6.55;4.13;;;21.70;53.60;;;;;;5045098;28;20079;-52
2021/09/01 10:53:43;;;;;;;6.93;4.00;;;21.70;52.40;;;;;;5044703;28;20033;-51
2021/09/01 10:56:27;;;;;;;7.18;4.88;;;21.80;52.50;;;;;;5044566;28;20036;-53
2021/09/01 10:59:25;;;;;;;9.88;4.07;;;21.90;54.80;;;;;;5029816;28;20035;-53
2021/09/01 11:02:14;;;;;;;6.68;4.30;;;22.10;53.70;;;;;;5044113;28;20410;-53
2021/09/01 11:04:59;;;;;;;10.07;5.20;;;22.30;52.70;;;;;;5044539;28;20060;-54
2021/09/01 11:07:43;;;;;;;6.38;4.28;;;22.00;50.00;;;;;;5044411;28;20108;-54
2021/09/01 11:10:28;;;;;;;6.57;4.40;;;22.00;51.70;;;;;;5029463;28;20032;-54
2021/09/01 11:13:12;;;;;;;8.20;4.35;;;22.20;52.20;;;;;;5043435;28;20036;-52
2021/09/01 11:15:57;;;;;;;6.05;4.45;;;22.30;51.60;;;;;;5044425;28;20241;-51
2021/09/01 11:18:58;;;;;;;6.35;3.97;;;22.30;52.90;;;;;;5044592;28;20076;-51
2021/09/01 11:21:43;;;;;;;5.47;4.00;;;22.50;51.60;;;;;;5044577;28;20300;-50
2021/09/01 11:24:28;;;;;;;7.75;4.32;;;22.70;51.30;;;;;;5044371;28;20041;-50
2021/09/01 11:27:13;;;;;;;7.95;4.25;;;22.70;52.00;;;;;;5044759;28;20036;-52
2021/09/01 11:30:10;;;;;;;9.73;4.65;;;22.80;52.30;;;;;;5043999;28;20032;-50
2021/09/01 11:32:55;;;;;;;7.07;4.43;;;23.00;53.50;;;;;;5043870;28;20399;-52
2021/09/01 11:35:39;;;;;;;7.60;4.05;;;23.10;53.30;;;;;;5043179;28;20059;-50
2021/09/01 11:38:23;;;;;;;5.93;4.25;;;23.20;53.00;;;;;;5044089;28;20036;-52
2021/09/01 11:41:07;;;;;;;5.63;3.80;;;23.10;51.90;;;;;;5043228;28;20076;-51
2021/09/01 11:44:02;;;;;;;8.27;4.22;;;23.10;48.90;;;;;;5043874;28;20080;-50
2021/09/01 11:46:46;;;;;;;6.32;4.03;;;23.00;49.20;;;;;;5043956;28;20048;-51
2021/09/01 11:49:31;;;;;;;5.47;3.70;;;22.90;49.40;;;;;;5043964;28;20063;-50
2021/09/01 11:52:15;;;;;;;6.30;3.75;;;23.00;49.50;;;;;;5043788;28;20030;-52
2021/09/01 11:54:59;;;;;;;6.05;3.30;;;23.10;49.70;;;;;;5043686;28;20120;-50
2021/09/01 11:57:43;;;;;;;6.18;3.97;;;23.20;50.40;;;;;;5044185;28;20208;-54
2021/09/01 12:00:27;;;;;;;6.03;4.07;;;23.40;51.60;;;;;;5043892;28;20042;-54
2021/09/01 12:03:12;;;;;;;8.38;4.05;;;23.30;51.10;;;;;;5043461;28;20033;-54
2021/09/01 12:06:08;;;;;;;5.50;3.70;;;23.20;50.30;;;;;;5043796;28;20217;-54
2021/09/01 12:08:53;;;;;;;5.90;3.80;;;23.10;50.00;;;;;;5043871;28;20080;-50
2021/09/01 12:11:37;;;;;;;7.00;3.97;;;22.80;48.20;;;;;;5043510;28;20032;-53
2021/09/01 12:14:29;;;;;;;6.38;3.72;;;22.50;47.10;;;;;;5043622;28;20221;-54
2021/09/01 12:17:22;;;;;;;6.53;3.63;;;22.50;46.40;;;;;;5043652;28;20079;-54
2021/09/01 12:20:11;;;;;;;6.00;3.40;;;22.40;46.60;;;;;;5043588;28;20044;-49
2021/09/01 12:22:55;;;;;;;5.35;3.47;;;22.60;47.10;;;;;;5043425;28;20049;-49
2021/09/01 12:25:39;;;;;;;6.15;3.25;;;22.60;45.80;;;;;;5043397;28;20075;-49
2021/09/01 12:28:24;;;;;;;5.13;3.55;;;22.50;44.60;;;;;;5043393;28;20064;-51
2021/09/01 12:31:18;;;;;;;8.02;3.83;;;22.60;45.40;;;;;;5043421;28;20101;-52
2021/09/01 12:34:08;;;;;;;6.63;3.92;;;22.80;47.60;;;;;;5042964;28;20069;-52
2021/09/01 12:37:02;;;;;;;6.22;3.72;;;22.90;47.30;;;;;;5043579;28;20075;-50
2021/09/01 12:39:54;;;;;;;6.25;3.25;;;22.80;43.40;;;;;;5043445;28;20347;-48
2021/09/01 12:42:40;;;;;;;4.85;3.25;;;22.50;42.70;;;;;;5046999;28;20420;-51
2021/09/01 12:45:25;;;;;;;4.93;2.80;;;22.60;45.00;;;;;;5047009;28;20079;-52
2021/09/01 12:48:16;;;;;;;5.55;3.35;;;22.70;45.20;;;;;;5047190;28;20389;-52
2021/09/01 12:51:04;;;;;;;7.38;3.70;;;22.90;47.60;;;;;;5047155;28;20032;-52
2021/09/01 12:53:51;;;;;;;6.95;3.30;;;23.00;47.30;;;;;;5045577;28;20040;-51
2021/09/01 12:56:36;;;;;;;5.95;3.33;;;22.80;45.30;;;;;;5046550;28;20226;-50
2021/09/01 12:59:20;;;;;;;6.20;3.47;;;23.00;48.30;;;;;;5045666;28;20048;-49
2021/09/01 13:02:04;;;;;;;5.45;3.20;;;23.10;45.40;;;;;;5046591;28;20048;-48
2021/09/01 13:04:49;;;;;;;5.40;2.97;;;23.10;47.50;;;;;;5046457;28;20355;-48
2021/09/01 13:07:33;;;;;;;5.20;3.10;;;23.20;48.40;;;;;;5046789;28;20032;-52
2021/09/01 13:10:19;;;;;;;4.25;2.90;;;23.20;46.60;;;;;;5046428;28;20052;-51
2021/09/01 13:13:03;;;;;;;6.32;3.13;;;23.30;47.90;;;;;;5046155;28;20027;-52
2021/09/01 13:15:47;;;;;;;6.15;3.40;;;23.30;46.30;;;;;;5045836;28;20025;-48
2021/09/01 13:18:31;;;;;;;5.28;3.42;;;23.10;43.30;;;;;;5046541;28;20260;-52
2021/09/01 13:21:15;;;;;;;5.18;3.20;;;22.90;43.70;;;;;;5046840;28;20028;-51
2021/09/01 13:24:00;;;;;;;4.45;2.85;;;23.00;45.80;;;;;;5045161;28;20024;-48
2021/09/01 13:26:44;;;;;;;5.30;3.53;;;22.90;44.40;;;;;;5046354;28;20222;-52
2021/09/01 13:29:28;;;;;;;4.85;3.10;;;22.70;43.40;;;;;;5046134;28;20033;-49
2021/09/01 13:32:12;;;;;;;5.40;3.33;;;22.70;45.60;;;;;;5045904;28;20127;-51
2021/09/01 13:34:57;;;;;;;4.75;3.30;;;22.80;46.00;;;;;;5046156;28;20249;-52
2021/09/01 13:37:41;;;;;;;7.15;3.90;;;22.90;46.50;;;;;;5045801;28;20040;-51
2021/09/01 13:40:25;;;;;;;7.93;3.22;;;22.80;44.10;;;;;;5045799;28;20027;-50
2021/09/01 13:43:10;;;;;;;5.32;3.10;;;22.90;45.20;;;;;;5045632;28;20339;-51
2021/09/01 13:45:54;;;;;;;5.40;3.65;;;22.90;44.90;;;;;;5046123;28;20033;-52
2021/09/01 13:48:40;;;;;;;5.15;3.33;;;23.00;46.90;;;;;;5046436;28;20032;-49
2021/09/01 13:51:24;;;;;;;5.78;3.22;;;22.90;43.70;;;;;;5044911;28;20037;-49
2021/09/01 13:54:09;;;;;;;4.20;3.00;;;22.60;43.30;;;;;;5046071;28;20032;-51
2021/09/01 13:56:54;;;;;;;4.85;3.20;;;22.60;42.40;;;;;;5045576;28;20028;-51
2021/09/01 13:59:38;;;;;;;5.35;3.30;;;22.60;43.50;;;;;;5045533;28;20145;-49
2021/09/01 14:02:22;;;;;;;4.50;3.20;;;22.70;45.50;;;;;;5045441;28;20068;-50
2021/09/01 14:05:07;;;;;;;8.85;3.10;;;22.80;46.10;;;;;;5045376;28;20036;-51
2021/09/01 14:07:51;;;;;;;6.28;3.13;;;22.90;47.00;;;;;;5045359;28;20052;-52
2021/09/01 14:10:35;;;;;;;7.30;3.80;;;22.80;46.10;;;;;;5044553;28;20083;-50
2021/09/01 14:13:19;;;;;;;4.38;2.97;;;22.70;43.30;;;;;;5045280;28;20063;-51
2021/09/01 14:16:04;;;;;;;5.45;3.45;;;22.60;43.20;;;;;;5045177;28;20083;-50
2021/09/01 14:18:48;;;;;;;5.03;3.38;;;22.50;43.10;;;;;;5045665;28;20044;-49
2021/09/01 14:21:33;;;;;;;4.38;3.15;;;22.50;44.00;;;;;;5045293;28;20289;-50